Asahimaru No17 — JI3569 — position and weather

sailwx.info

Track history (hours):
 
Tides and Currents Weather Stations Pressure Air Temp Water Temp Dewpoint Dewpoint Depression Visibility Wind Speed Wind Dir Waves Ship Positions

Asahimaru No17

Last reported at 2018-Feb-21 10:50 UTC. Time now 2018-Feb-21 19:23 UTC.
Position N 33°41' E 130°11'.

Length 76 m.

Type: Cargo ship. MMSI: 431300202.

Date/timePositionNaut miles runAvg speedWind from/ knotsBaromVisibWave heightAir tempDewpointWater temp
2018-Feb-21 10:50N 33°41' E 130°11'511.4
2018-Feb-21 10:23N 33°44' E 130°16'411.2
2018-Feb-21 09:59N 33°47' E 130°20'511.2
2018-Feb-21 09:30N 33°51' E 130°24'510.8
2018-Feb-21 08:59N 33°56' E 130°28'5 9.6
2018-Feb-21 08:30N 33°58' E 130°33'5 9.9
2018-Feb-21 08:00N 33°58' E 130°39'510.3
2018-Feb-21 07:30N 33°58' E 130°45'510.2
2018-Feb-21 07:00N 33°57' E 130°52'3 5.2
2018-Feb-21 06:25N 33°54' E 130°53'0 0.0
2018-Feb-21 05:55N 33°54' E 130°53'0 0.0
2018-Feb-21 05:28N 33°54' E 130°53'0 0.0
2018-Feb-21 04:52N 33°54' E 130°53'0 0.0
2018-Feb-21 04:25N 33°54' E 130°53'0 0.0
2018-Feb-21 03:55N 33°54' E 130°53'0 0.0
2018-Feb-21 03:28N 33°54' E 130°53'0 0.0
2018-Feb-21 02:58N 33°54' E 130°53'0 0.0
2018-Feb-21 02:28N 33°54' E 130°53'0 0.0
2018-Feb-21 01:55N 33°54' E 130°53'0 0.0
2018-Feb-21 01:28N 33°54' E 130°53'0 0.0
2018-Feb-21 00:55N 33°54' E 130°53'2 5.4
2018-Feb-21 00:29N 33°55' E 130°56'4 9.0
2018-Feb-21 00:00N 33°58' E 130°59'4 8.4
2018-Feb-20 23:30N 33°57' E 131°03'610.8
2018-Feb-20 22:59N 33°54' E 131°09'511.0
2018-Feb-20 22:29N 33°52' E 131°15'511.0
2018-Feb-20 22:00N 33°51' E 131°22'510.8
2018-Feb-20 21:30N 33°50' E 131°28'510.7
2018-Feb-20 21:00N 33°48' E 131°34'610.4
2018-Feb-20 20:23N 33°47' E 131°42'53 9.5
2018-Feb-20 14:49N 33°59' E 132°43'215 5.9
2018-Feb-19 02:37N 34°45' E 136°58'311.9
2018-Feb-19 02:24N 34°48' E 136°57'5 1.0
2018-Feb-18 21:38N 34°53' E 136°58'0 1.2
2018-Feb-18 21:26N 34°53' E 136°58'11 0.7
2018-Feb-18 05:08N 34°43' E 136°52'211.2
2018-Feb-18 04:58N 34°44' E 136°50'511.4
2018-Feb-18 04:30N 34°49' E 136°48'611.6
2018-Feb-18 03:59N 34°55' E 136°46'510.9
2018-Feb-18 03:30N 34°60' E 136°49'510.5
2018-Feb-18 03:00N 35°04' E 136°52'1 1.1
2018-Feb-18 02:26N 35°05' E 136°53'0 0.1
2018-Feb-18 01:56N 35°05' E 136°53'0 0.0
2018-Feb-18 01:26N 35°05' E 136°53'0 0.0
2018-Feb-18 00:59N 35°05' E 136°53'0 0.0
2018-Feb-18 00:29N 35°05' E 136°53'0 0.0
2018-Feb-17 23:59N 35°05' E 136°53'0 0.0
2018-Feb-17 23:29N 35°05' E 136°53'0 0.0
2018-Feb-17 22:56N 35°05' E 136°53'0 0.1
2018-Feb-17 22:29N 35°05' E 136°53'0 0.1
2018-Feb-17 21:56N 35°05' E 136°53'0 0.0
2018-Feb-17 21:26N 35°05' E 136°53'0 0.0
2018-Feb-17 20:59N 35°05' E 136°53'0 0.0
2018-Feb-17 20:29N 35°05' E 136°53'0 0.0
2018-Feb-17 19:59N 35°05' E 136°53'0 0.0
2018-Feb-17 19:29N 35°05' E 136°53'0 0.0
2018-Feb-17 18:59N 35°05' E 136°53'0 0.0
2018-Feb-17 18:23N 35°05' E 136°53'0 0.0
2018-Feb-17 17:56N 35°05' E 136°53'0 0.1
2018-Feb-17 17:29N 35°05' E 136°53'0 0.0
2018-Feb-17 16:56N 35°05' E 136°53'0 0.0
2018-Feb-17 16:29N 35°05' E 136°53'0 0.0
2018-Feb-17 15:59N 35°05' E 136°53'0 0.0
2018-Feb-17 15:29N 35°05' E 136°53'0 0.0
2018-Feb-17 14:59N 35°05' E 136°53'0 0.0
2018-Feb-17 14:26N 35°05' E 136°53'0 0.0
2018-Feb-17 13:59N 35°05' E 136°53'0 0.0
2018-Feb-17 13:29N 35°05' E 136°53'0 0.0
2018-Feb-17 12:59N 35°05' E 136°53'0 0.3
2018-Feb-17 12:30N 35°04' E 136°52'4 8.6
2018-Feb-17 12:00N 35°01' E 136°50'5 9.9
2018-Feb-17 11:30N 34°56' E 136°47'5 9.4
2018-Feb-17 10:59N 34°51' E 136°47'105 3.5
2018-Feb-16 04:35N 33°52' E 135°01'111.2
2018-Feb-16 04:28N 33°53' E 135°00'511.1
2018-Feb-16 04:00N 33°57' E 134°56'511.0
2018-Feb-16 03:30N 34°01' E 134°52'107 8.4
2018-Feb-15 14:45N 34°03' E 132°42'210.2
2018-Feb-15 14:30N 34°02' E 132°40'  
Track history (hours):
 
Tides and Currents Weather Stations Pressure Air Temp Water Temp Dewpoint Dewpoint Depression Visibility Wind Speed Wind Dir Waves Ship Positions

Asahimaru No17

Last reported at 2018-Feb-21 10:50 UTC. Time now 2018-Feb-21 19:23 UTC.
Position N 33°41' E 130°11'.

Length 76 m.

Type: Cargo ship. MMSI: 431300202.

Date/timePositionNaut miles runAvg speedWind from/ knotsBaromVisibWave heightAir tempDewpointWater temp
2018-Feb-21 10:50N 33°41' E 130°11'511.4
2018-Feb-21 10:23N 33°44' E 130°16'411.2
2018-Feb-21 09:59N 33°47' E 130°20'511.2
2018-Feb-21 09:30N 33°51' E 130°24'510.8
2018-Feb-21 08:59N 33°56' E 130°28'5 9.6
2018-Feb-21 08:30N 33°58' E 130°33'5 9.9
2018-Feb-21 08:00N 33°58' E 130°39'510.3
2018-Feb-21 07:30N 33°58' E 130°45'510.2
2018-Feb-21 07:00N 33°57' E 130°52'3 5.2
2018-Feb-21 06:25N 33°54' E 130°53'0 0.0
2018-Feb-21 05:55N 33°54' E 130°53'0 0.0
2018-Feb-21 05:28N 33°54' E 130°53'0 0.0
2018-Feb-21 04:52N 33°54' E 130°53'0 0.0
2018-Feb-21 04:25N 33°54' E 130°53'0 0.0
2018-Feb-21 03:55N 33°54' E 130°53'0 0.0
2018-Feb-21 03:28N 33°54' E 130°53'0 0.0
2018-Feb-21 02:58N 33°54' E 130°53'0 0.0
2018-Feb-21 02:28N 33°54' E 130°53'0 0.0
2018-Feb-21 01:55N 33°54' E 130°53'0 0.0
2018-Feb-21 01:28N 33°54' E 130°53'0 0.0
2018-Feb-21 00:55N 33°54' E 130°53'2 5.4
2018-Feb-21 00:29N 33°55' E 130°56'4 9.0
2018-Feb-21 00:00N 33°58' E 130°59'4 8.4
2018-Feb-20 23:30N 33°57' E 131°03'610.8
2018-Feb-20 22:59N 33°54' E 131°09'511.0
2018-Feb-20 22:29N 33°52' E 131°15'511.0
2018-Feb-20 22:00N 33°51' E 131°22'510.8
2018-Feb-20 21:30N 33°50' E 131°28'510.7
2018-Feb-20 21:00N 33°48' E 131°34'610.4
2018-Feb-20 20:23N 33°47' E 131°42'53 9.5
2018-Feb-20 14:49N 33°59' E 132°43'215 5.9
2018-Feb-19 02:37N 34°45' E 136°58'311.9
2018-Feb-19 02:24N 34°48' E 136°57'5 1.0
2018-Feb-18 21:38N 34°53' E 136°58'0 1.2
2018-Feb-18 21:26N 34°53' E 136°58'11 0.7
2018-Feb-18 05:08N 34°43' E 136°52'211.2
2018-Feb-18 04:58N 34°44' E 136°50'511.4
2018-Feb-18 04:30N 34°49' E 136°48'611.6
2018-Feb-18 03:59N 34°55' E 136°46'510.9
2018-Feb-18 03:30N 34°60' E 136°49'510.5
2018-Feb-18 03:00N 35°04' E 136°52'1 1.1
2018-Feb-18 02:26N 35°05' E 136°53'0 0.1
2018-Feb-18 01:56N 35°05' E 136°53'0 0.0
2018-Feb-18 01:26N 35°05' E 136°53'0 0.0
2018-Feb-18 00:59N 35°05' E 136°53'0 0.0
2018-Feb-18 00:29N 35°05' E 136°53'0 0.0
2018-Feb-17 23:59N 35°05' E 136°53'0 0.0
2018-Feb-17 23:29N 35°05' E 136°53'0 0.0
2018-Feb-17 22:56N 35°05' E 136°53'0 0.1
2018-Feb-17 22:29N 35°05' E 136°53'0 0.1
2018-Feb-17 21:56N 35°05' E 136°53'0 0.0
2018-Feb-17 21:26N 35°05' E 136°53'0 0.0
2018-Feb-17 20:59N 35°05' E 136°53'0 0.0
2018-Feb-17 20:29N 35°05' E 136°53'0 0.0
2018-Feb-17 19:59N 35°05' E 136°53'0 0.0
2018-Feb-17 19:29N 35°05' E 136°53'0 0.0
2018-Feb-17 18:59N 35°05' E 136°53'0 0.0
2018-Feb-17 18:23N 35°05' E 136°53'0 0.0
2018-Feb-17 17:56N 35°05' E 136°53'0 0.1
2018-Feb-17 17:29N 35°05' E 136°53'0 0.0
2018-Feb-17 16:56N 35°05' E 136°53'0 0.0
2018-Feb-17 16:29N 35°05' E 136°53'0 0.0
2018-Feb-17 15:59N 35°05' E 136°53'0 0.0
2018-Feb-17 15:29N 35°05' E 136°53'0 0.0
2018-Feb-17 14:59N 35°05' E 136°53'0 0.0
2018-Feb-17 14:26N 35°05' E 136°53'0 0.0
2018-Feb-17 13:59N 35°05' E 136°53'0 0.0
2018-Feb-17 13:29N 35°05' E 136°53'0 0.0
2018-Feb-17 12:59N 35°05' E 136°53'0 0.3
2018-Feb-17 12:30N 35°04' E 136°52'4 8.6
2018-Feb-17 12:00N 35°01' E 136°50'5 9.9
2018-Feb-17 11:30N 34°56' E 136°47'5 9.4
2018-Feb-17 10:59N 34°51' E 136°47'105 3.5
2018-Feb-16 04:35N 33°52' E 135°01'111.2
2018-Feb-16 04:28N 33°53' E 135°00'511.1
2018-Feb-16 04:00N 33°57' E 134°56'511.0
2018-Feb-16 03:30N 34°01' E 134°52'107 8.4
2018-Feb-15 14:45N 34°03' E 132°42'210.2
2018-Feb-15 14:30N 34°02' E 132°40'  

Dump ship's entire track history